Time;durP1;ratioP1;P1;durP2;ratioP2;P2;SDS_P1;SDS_P2;PMS_P1;PMS_P2;Temp;Humidity;BMP_temperature;BMP_pressure;BME280_temperature;BME280_humidity;BME280_pressure;Samples;Min_cycle;Max_cycle;Signal;HPM_P1;HPM_P2
2023/11/02 00:01:07;;;;;;;7.63;1.30;;;;;;;;;;5032050;28;20196;-79
2023/11/02 00:03:35;;;;;;;10.57;1.37;;;;;;;;;;5031660;28;20231;-79
2023/11/02 00:06:22;;;;;;;9.20;1.87;;;;;;;;;;5032008;28;20290;-79
2023/11/02 00:09:00;;;;;;;11.47;1.97;;;;;;;;;;5031505;28;20287;-80
2023/11/02 00:11:45;;;;;;;12.33;2.30;;;;;;;;;;5031882;28;20192;-80
2023/11/02 00:14:13;;;;;;;12.00;2.50;;;;;;;;;;5031710;28;20676;-80
2023/11/02 00:16:40;;;;;;;12.40;2.30;;;;;;;;;;5031568;28;20247;-80
2023/11/02 00:19:07;;;;;;;13.70;2.27;;;;;;;;;;5031991;28;20231;-80
2023/11/02 00:21:34;;;;;;;16.50;3.50;;;;;;;;;;5031780;28;20228;-80
2023/11/02 00:24:03;;;;;;;25.20;3.77;;;;;;;;;;5031406;28;20283;-81
2023/11/02 00:26:30;;;;;;;22.30;3.57;;;;;;;;;;5031612;28;20740;-81
2023/11/02 00:28:57;;;;;;;25.73;4.00;;;;;;;;;;5031539;28;20204;-79
2023/11/02 00:31:24;;;;;;;29.40;4.93;;;;;;;;;;5031692;28;20327;-80
2023/11/02 00:33:52;;;;;;;30.10;4.03;;;;;;;;;;5031335;28;20283;-80
2023/11/02 00:36:20;;;;;;;24.03;4.40;;;;;;;;;;5031351;28;20200;-80
2023/11/02 00:38:47;;;;;;;23.37;4.10;;;;;;;;;;5031049;28;20235;-80
2023/11/02 00:41:16;;;;;;;30.73;4.83;;;;;;;;;;5031372;28;20295;-79
2023/11/02 00:43:43;;;;;;;27.43;4.90;;;;;;;;;;5031512;28;20231;-80
2023/11/02 00:46:10;;;;;;;37.70;5.37;;;;;;;;;;5031230;28;20287;-80
2023/11/02 00:48:37;;;;;;;32.53;5.13;;;;;;;;;;5031889;28;20227;-81
2023/11/02 00:51:14;;;;;;;32.97;5.30;;;;;;;;;;5030983;28;20247;-81
2023/11/02 00:53:43;;;;;;;29.07;4.67;;;;;;;;;;5030759;28;20706;-81
2023/11/02 00:56:10;;;;;;;33.33;5.50;;;;;;;;;;5031012;28;20197;-80
2023/11/02 00:58:41;;;;;;;29.67;5.17;;;;;;;;;;5033905;28;20289;-81
2023/11/02 01:01:10;;;;;;;37.50;5.63;;;;;;;;;;5035324;28;20681;-80
2023/11/02 01:03:36;;;;;;;21.27;3.90;;;;;;;;;;5034875;28;20777;-80
2023/11/02 01:06:03;;;;;;;14.17;3.23;;;;;;;;;;5034679;28;20208;-80
2023/11/02 01:08:32;;;;;;;17.83;2.70;;;;;;;;;;5035230;28;20275;-79
2023/11/02 01:10:59;;;;;;;18.13;2.67;;;;;;;;;;5035397;28;20224;-80
2023/11/02 01:13:28;;;;;;;16.90;2.50;;;;;;;;;;5035203;28;20580;-80
2023/11/02 01:16:16;;;;;;;19.80;2.87;;;;;;;;;;5035103;28;20196;-80
2023/11/02 01:18:46;;;;;;;14.27;3.37;;;;;;;;;;5033313;28;20554;-80
2023/11/02 01:21:15;;;;;;;24.67;4.17;;;;;;;;;;5034501;28;20224;-80
2023/11/02 01:23:42;;;;;;;20.57;3.53;;;;;;;;;;5035001;28;20223;-80
2023/11/02 01:26:24;;;;;;;23.17;3.93;;;;;;;;;;5034594;28;20231;-80
2023/11/02 01:28:54;;;;;;;24.00;4.40;;;;;;;;;;5035429;28;20206;-80
2023/11/02 01:31:21;;;;;;;23.63;4.00;;;;;;;;;;5034258;28;20770;-80
2023/11/02 01:34:00;;;;;;;24.00;5.03;;;;;;;;;;5034909;28;20761;-80
2023/11/02 01:36:32;;;;;;;25.50;3.97;;;;;;;;;;5034575;28;20196;-80
2023/11/02 01:39:01;;;;;;;26.37;4.30;;;;;;;;;;5034817;28;20197;-79
2023/11/02 01:41:33;;;;;;;20.37;3.93;;;;;;;;;;5034372;28;20202;-79
2023/11/02 01:44:04;;;;;;;21.27;3.30;;;;;;;;;;5034435;28;20785;-79
2023/11/02 01:46:37;;;;;;;20.17;3.53;;;;;;;;;;5034414;28;20192;-79
2023/11/02 01:49:09;;;;;;;20.37;3.67;;;;;;;;;;5034604;28;20199;-80
2023/11/02 01:51:36;;;;;;;24.03;3.77;;;;;;;;;;5033763;28;20356;-80
2023/11/02 01:54:06;;;;;;;25.10;4.17;;;;;;;;;;5034669;28;20239;-80
2023/11/02 01:56:39;;;;;;;24.53;4.73;;;;;;;;;;5034348;28;20271;-79
2023/11/02 01:59:11;;;;;;;29.53;4.63;;;;;;;;;;5034353;28;20251;-79
2023/11/02 02:01:43;;;;;;;28.97;4.83;;;;;;;;;;5034242;28;20201;-79
2023/11/02 02:04:17;;;;;;;35.57;5.27;;;;;;;;;;5033830;28;20786;-80
2023/11/02 02:06:48;;;;;;;29.47;5.30;;;;;;;;;;5034153;28;20588;-79
2023/11/02 02:09:26;;;;;;;21.90;4.40;;;;;;;;;;5016320;28;20211;-80
2023/11/02 02:11:58;;;;;;;22.40;4.47;;;;;;;;;;5034181;28;20227;-79
2023/11/02 02:14:27;;;;;;;18.27;3.00;;;;;;;;;;5033801;28;20299;-80
2023/11/02 02:16:57;;;;;;;15.87;3.67;;;;;;;;;;5033697;28;20585;-79
2023/11/02 02:19:41;;;;;;;12.00;2.50;;;;;;;;;;5033708;28;20294;-80
2023/11/02 02:22:10;;;;;;;10.00;2.07;;;;;;;;;;5033692;28;20203;-79
2023/11/02 02:24:44;;;;;;;11.13;2.10;;;;;;;;;;5034104;28;20231;-79
2023/11/02 02:27:32;;;;;;;17.57;2.63;;;;;;;;;;5033278;28;20197;-79
2023/11/02 02:30:17;;;;;;;21.10;3.57;;;;;;;;;;5030050;28;20224;-79
2023/11/02 02:32:57;;;;;;;24.07;4.03;;;;;;;;;;5033219;28;20218;-79
2023/11/02 02:35:30;;;;;;;29.17;4.23;;;;;;;;;;5033525;28;20236;-80
2023/11/02 02:38:02;;;;;;;18.77;3.33;;;;;;;;;;5033178;28;20287;-80
2023/11/02 02:40:31;;;;;;;20.80;3.40;;;;;;;;;;5033778;28;20232;-79
2023/11/02 02:42:59;;;;;;;19.97;3.73;;;;;;;;;;5033372;28;20314;-79
2023/11/02 02:45:28;;;;;;;28.23;4.70;;;;;;;;;;5033408;28;20224;-80
2023/11/02 02:47:56;;;;;;;23.53;4.00;;;;;;;;;;5033069;28;20196;-80
2023/11/02 02:50:24;;;;;;;27.27;4.23;;;;;;;;;;5033559;28;20236;-79
2023/11/02 02:52:56;;;;;;;24.73;3.83;;;;;;;;;;5033023;28;20231;-80
2023/11/02 02:55:24;;;;;;;24.07;4.13;;;;;;;;;;5033341;28;20239;-80
2023/11/02 02:57:52;;;;;;;25.47;4.63;;;;;;;;;;5033328;28;20286;-79
2023/11/02 03:00:20;;;;;;;23.40;4.23;;;;;;;;;;5033374;28;20254;-80
2023/11/02 03:02:48;;;;;;;26.60;4.80;;;;;;;;;;5032769;28;20224;-79
2023/11/02 03:05:16;;;;;;;24.43;4.40;;;;;;;;;;5033105;28;20294;-79
2023/11/02 03:07:43;;;;;;;26.77;4.40;;;;;;;;;;5033176;28;20231;-80
2023/11/02 03:10:12;;;;;;;21.83;3.90;;;;;;;;;;5027993;28;20225;-79
2023/11/02 03:12:42;;;;;;;22.83;4.63;;;;;;;;;;5013055;28;20213;-79
2023/11/02 03:15:12;;;;;;;26.33;4.77;;;;;;;;;;5013059;28;21253;-78
2023/11/02 03:17:44;;;;;;;29.17;4.73;;;;;;;;;;5013039;28;20288;-79
2023/11/02 03:20:12;;;;;;;28.90;5.03;;;;;;;;;;5012429;28;20229;-79
2023/11/02 03:22:42;;;;;;;25.67;4.60;;;;;;;;;;5013121;28;20248;-79
2023/11/02 03:25:15;;;;;;;28.20;4.87;;;;;;;;;;5012657;28;20204;-78
2023/11/02 03:27:47;;;;;;;24.30;4.27;;;;;;;;;;5013141;28;20201;-80
2023/11/02 03:30:18;;;;;;;26.60;4.47;;;;;;;;;;5012949;28;20233;-78
2023/11/02 03:32:55;;;;;;;22.23;4.67;;;;;;;;;;5012785;28;20197;-79
2023/11/02 03:35:25;;;;;;;26.10;4.70;;;;;;;;;;5028804;28;20296;-80
2023/11/02 03:37:58;;;;;;;24.70;4.50;;;;;;;;;;5032078;28;20246;-80
2023/11/02 03:40:31;;;;;;;30.00;5.83;;;;;;;;;;5032018;28;20197;-79
2023/11/02 03:43:06;;;;;;;25.27;4.60;;;;;;;;;;5032603;28;20290;-79
2023/11/02 03:45:38;;;;;;;21.30;4.20;;;;;;;;;;5031662;28;20199;-79
2023/11/02 03:48:11;;;;;;;27.13;4.23;;;;;;;;;;5032341;28;20270;-79
2023/11/02 03:50:42;;;;;;;29.13;4.77;;;;;;;;;;5032201;28;20196;-79
2023/11/02 03:53:14;;;;;;;27.57;4.87;;;;;;;;;;5031799;28;20228;-79
2023/11/02 03:55:51;;;;;;;21.40;3.90;;;;;;;;;;5032125;28;20232;-79
2023/11/02 03:58:29;;;;;;;23.93;3.90;;;;;;;;;;5032274;28;20223;-79
2023/11/02 04:01:02;;;;;;;18.07;3.30;;;;;;;;;;5031438;28;20231;-81
2023/11/02 04:03:32;;;;;;;19.87;3.70;;;;;;;;;;5031858;28;20256;-79
2023/11/02 04:06:00;;;;;;;15.87;3.90;;;;;;;;;;5031688;28;20231;-79
2023/11/02 04:08:30;;;;;;;23.00;3.10;;;;;;;;;;5032135;28;20669;-80
2023/11/02 04:11:03;;;;;;;17.60;3.73;;;;;;;;;;5031973;28;20295;-79
2023/11/02 04:13:31;;;;;;;20.83;3.70;;;;;;;;;;5031609;28;20651;-80
2023/11/02 04:15:58;;;;;;;21.17;4.13;;;;;;;;;;5031479;28;20632;-80
2023/11/02 04:18:26;;;;;;;32.93;4.57;;;;;;;;;;5031497;28;20200;-80
2023/11/02 04:20:53;;;;;;;18.10;3.13;;;;;;;;;;5032032;28;20279;-79
2023/11/02 04:23:21;;;;;;;23.97;4.00;;;;;;;;;;5032064;28;20227;-79
2023/11/02 04:25:50;;;;;;;19.33;3.57;;;;;;;;;;5031637;28;20200;-80
2023/11/02 04:28:18;;;;;;;21.70;3.90;;;;;;;;;;5031845;28;20200;-79
2023/11/02 04:30:47;;;;;;;22.60;3.83;;;;;;;;;;5030961;28;20331;-79
2023/11/02 04:33:14;;;;;;;21.27;3.90;;;;;;;;;;5030637;28;20610;-80
2023/11/02 04:35:41;;;;;;;17.20;3.60;;;;;;;;;;5031391;28;20295;-77
2023/11/02 04:38:09;;;;;;;19.17;3.40;;;;;;;;;;5013712;28;20200;-78
2023/11/02 04:40:39;;;;;;;14.67;2.87;;;;;;;;;;5031448;28;20283;-79
2023/11/02 04:43:06;;;;;;;14.83;3.07;;;;;;;;;;5031321;28;20390;-80
2023/11/02 04:45:36;;;;;;;12.33;2.87;;;;;;;;;;5031016;28;20239;-81
2023/11/02 04:48:04;;;;;;;9.90;2.00;;;;;;;;;;5031463;28;20197;-78
2023/11/02 04:50:31;;;;;;;15.00;2.47;;;;;;;;;;5031365;28;20243;-80
2023/11/02 04:53:00;;;;;;;12.03;2.17;;;;;;;;;;5031558;28;20219;-78
2023/11/02 04:55:27;;;;;;;12.53;2.33;;;;;;;;;;5031084;28;20208;-80
2023/11/02 04:57:54;;;;;;;9.30;1.73;;;;;;;;;;5031600;28;20197;-79
2023/11/02 05:00:21;;;;;;;8.43;1.73;;;;;;;;;;5031060;28;20223;-80
2023/11/02 05:02:50;;;;;;;9.53;1.97;;;;;;;;;;5030955;28;20232;-78
2023/11/02 05:05:18;;;;;;;11.20;1.87;;;;;;;;;;5031211;28;20263;-79
2023/11/02 05:07:45;;;;;;;9.27;1.97;;;;;;;;;;5031110;28;20219;-80
2023/11/02 05:10:12;;;;;;;12.50;2.50;;;;;;;;;;5031208;28;20696;-80
2023/11/02 05:12:39;;;;;;;13.83;2.53;;;;;;;;;;5031114;28;20220;-78
2023/11/02 05:15:07;;;;;;;12.30;3.10;;;;;;;;;;5030855;28;20215;-80
2023/11/02 05:17:34;;;;;;;16.20;2.73;;;;;;;;;;5030884;28;20288;-77
2023/11/02 05:20:03;;;;;;;11.50;2.23;;;;;;;;;;5030930;28;20920;-79
2023/11/02 05:22:30;;;;;;;16.87;2.53;;;;;;;;;;5030918;28;20197;-81
2023/11/02 05:24:57;;;;;;;15.10;2.83;;;;;;;;;;5030671;28;20264;-78
2023/11/02 05:27:25;;;;;;;15.73;2.73;;;;;;;;;;5030652;28;20283;-78
2023/11/02 05:29:52;;;;;;;14.60;2.87;;;;;;;;;;5030820;28;20761;-78
2023/11/02 05:32:19;;;;;;;15.30;2.63;;;;;;;;;;5030887;28;20287;-79
2023/11/02 05:34:46;;;;;;;19.27;3.27;;;;;;;;;;5030783;28;20236;-80
2023/11/02 05:37:15;;;;;;;17.87;3.10;;;;;;;;;;5030628;28;20236;-80
2023/11/02 05:39:42;;;;;;;19.20;3.50;;;;;;;;;;5030712;28;20579;-81
2023/11/02 05:42:09;;;;;;;18.73;3.60;;;;;;;;;;5030099;28;20768;-80
2023/11/02 05:44:36;;;;;;;16.23;3.17;;;;;;;;;;5032973;28;20327;-80
2023/11/02 05:47:04;;;;;;;13.93;2.57;;;;;;;;;;5034772;28;20231;-80
2023/11/02 05:49:31;;;;;;;17.40;2.47;;;;;;;;;;5034762;28;20274;-80
2023/11/02 05:52:00;;;;;;;12.60;2.57;;;;;;;;;;5034412;28;20204;-80
2023/11/02 05:54:29;;;;;;;11.57;2.87;;;;;;;;;;5034049;28;20266;-80
2023/11/02 05:56:56;;;;;;;10.80;1.80;;;;;;;;;;5034431;28;20787;-80
2023/11/02 05:59:23;;;;;;;8.20;1.83;;;;;;;;;;5034468;28;20589;-80
2023/11/02 06:01:50;;;;;;;7.13;1.87;;;;;;;;;;5034015;28;20291;-80
2023/11/02 06:04:17;;;;;;;6.10;1.87;;;;;;;;;;5034125;28;20720;-80
2023/11/02 06:06:44;;;;;;;9.23;2.00;;;;;;;;;;5034035;28;20203;-81
2023/11/02 06:09:12;;;;;;;8.23;1.50;;;;;;;;;;5033891;28;20677;-80
2023/11/02 06:11:40;;;;;;;6.73;1.93;;;;;;;;;;5033577;28;20670;-80
2023/11/02 06:14:07;;;;;;;6.43;1.73;;;;;;;;;;5034071;28;20948;-80
2023/11/02 06:16:35;;;;;;;9.33;1.73;;;;;;;;;;5033763;28;20646;-79
2023/11/02 06:19:02;;;;;;;6.17;1.70;;;;;;;;;;5033545;28;20207;-80
2023/11/02 06:21:29;;;;;;;10.07;1.80;;;;;;;;;;5033734;28;20271;-79
2023/11/02 06:23:56;;;;;;;12.40;1.80;;;;;;;;;;5033495;28;20256;-80
2023/11/02 06:26:23;;;;;;;10.43;1.80;;;;;;;;;;5033823;28;20287;-80
2023/11/02 06:28:52;;;;;;;11.13;2.60;;;;;;;;;;5033810;28;20640;-80
2023/11/02 06:31:19;;;;;;;12.10;2.40;;;;;;;;;;5033557;28;20275;-80
2023/11/02 06:33:47;;;;;;;10.73;2.23;;;;;;;;;;5033424;28;20323;-80
2023/11/02 06:36:14;;;;;;;11.87;2.03;;;;;;;;;;5033434;28;20203;-80
2023/11/02 06:38:41;;;;;;;13.53;2.10;;;;;;;;;;5033975;28;20220;-80
2023/11/02 06:41:09;;;;;;;11.23;2.50;;;;;;;;;;5033235;28;20628;-80
2023/11/02 06:43:36;;;;;;;12.90;2.13;;;;;;;;;;5033358;28;20716;-81
2023/11/02 06:46:05;;;;;;;13.07;2.10;;;;;;;;;;5033363;28;20732;-80
2023/11/02 06:48:33;;;;;;;10.43;2.00;;;;;;;;;;5033585;28;20284;-80
2023/11/02 06:51:00;;;;;;;8.70;1.57;;;;;;;;;;5033500;28;20592;-80
2023/11/02 06:53:27;;;;;;;8.57;1.57;;;;;;;;;;5033276;28;20200;-80
2023/11/02 06:55:56;;;;;;;6.40;1.53;;;;;;;;;;5032170;28;20208;-80
2023/11/02 06:58:23;;;;;;;7.90;2.13;;;;;;;;;;5033388;28;20201;-81
2023/11/02 07:00:50;;;;;;;7.80;1.83;;;;;;;;;;5033206;28;20669;-81
2023/11/02 07:03:19;;;;;;;7.27;1.20;;;;;;;;;;5032982;28;20648;-80
2023/11/02 07:05:47;;;;;;;8.20;1.50;;;;;;;;;;5032960;28;20278;-80
2023/11/02 07:08:14;;;;;;;7.20;1.50;;;;;;;;;;5033256;28;20235;-81
2023/11/02 07:10:41;;;;;;;8.53;1.60;;;;;;;;;;5032892;28;20216;-80
2023/11/02 07:13:11;;;;;;;7.70;1.63;;;;;;;;;;5032805;28;20224;-80
2023/11/02 07:15:39;;;;;;;5.60;1.27;;;;;;;;;;5032768;28;20209;-78
2023/11/02 07:18:07;;;;;;;9.80;1.43;;;;;;;;;;5033197;28;20669;-79
2023/11/02 07:20:35;;;;;;;10.47;1.60;;;;;;;;;;5032526;28;20906;-79
2023/11/02 07:23:02;;;;;;;9.23;1.30;;;;;;;;;;5032199;28;20197;-79
2023/11/02 07:25:30;;;;;;;7.43;1.40;;;;;;;;;;5031953;28;20256;-80
2023/11/02 07:27:57;;;;;;;7.40;1.47;;;;;;;;;;5032862;28;20290;-78
2023/11/02 07:30:24;;;;;;;5.83;2.00;;;;;;;;;;5042814;28;20235;-78
2023/11/02 07:32:51;;;;;;;7.37;1.70;;;;;;;;;;5037173;28;20694;-78
2023/11/02 07:35:18;;;;;;;6.80;1.77;;;;;;;;;;5036443;28;20283;-79
2023/11/02 07:37:47;;;;;;;8.67;1.63;;;;;;;;;;5041949;28;20231;-79
2023/11/02 07:40:14;;;;;;;5.77;1.70;;;;;;;;;;5052158;28;20276;-78
2023/11/02 07:42:41;;;;;;;6.90;1.67;;;;;;;;;;5052161;28;20200;-80
2023/11/02 07:45:09;;;;;;;8.43;1.80;;;;;;;;;;5051654;28;20285;-77
2023/11/02 07:47:36;;;;;;;7.67;1.67;;;;;;;;;;5032059;28;20287;-80
2023/11/02 07:50:04;;;;;;;7.87;1.50;;;;;;;;;;5031838;28;20700;-80
2023/11/02 07:52:31;;;;;;;5.97;1.40;;;;;;;;;;5031861;28;20193;-80
2023/11/02 07:54:59;;;;;;;9.97;2.23;;;;;;;;;;5032095;28;20288;-79
2023/11/02 07:57:28;;;;;;;11.17;1.63;;;;;;;;;;5032224;28;20235;-76
2023/11/02 07:59:55;;;;;;;7.47;1.70;;;;;;;;;;5032031;28;20232;-79
2023/11/02 08:02:22;;;;;;;7.50;1.30;;;;;;;;;;5033201;28;20200;-79
2023/11/02 08:04:50;;;;;;;8.70;1.53;;;;;;;;;;5051542;28;20323;-79
2023/11/02 08:07:17;;;;;;;8.87;1.80;;;;;;;;;;5051102;28;20223;-80
2023/11/02 08:09:44;;;;;;;7.77;2.00;;;;;;;;;;5034246;28;20199;-79
2023/11/02 08:12:15;;;;;;;9.63;2.13;;;;;;;;;;5051874;28;20291;-79
2023/11/02 08:14:43;;;;;;;9.43;1.90;;;;;;;;;;5051677;28;20206;-78
2023/11/02 08:17:16;;;;;;;10.07;1.77;;;;;;;;;;5051566;28;20740;-79
2023/11/02 08:19:44;;;;;;;7.53;2.20;;;;;;;;;;5052031;28;20290;-80
2023/11/02 08:22:11;;;;;;;8.97;1.90;;;;;;;;;;5051450;28;20290;-80
2023/11/02 08:24:38;;;;;;;9.07;1.73;;;;;;;;;;5051527;28;20307;-80
2023/11/02 08:27:06;;;;;;;9.83;1.73;;;;;;;;;;5051373;28;20219;-80
2023/11/02 08:29:34;;;;;;;10.00;2.23;;;;;;;;;;5051259;28;20238;-78
2023/11/02 08:32:01;;;;;;;9.07;2.50;;;;;;;;;;5051737;28;20286;-80
2023/11/02 08:34:29;;;;;;;9.60;2.33;;;;;;;;;;5042175;28;20204;-79
2023/11/02 08:36:56;;;;;;;8.67;1.73;;;;;;;;;;5036300;28;20196;-79
2023/11/02 08:39:24;;;;;;;5.37;1.57;;;;;;;;;;5051607;28;20199;-79
2023/11/02 08:41:51;;;;;;;7.20;1.83;;;;;;;;;;5051273;28;20195;-79
2023/11/02 08:44:18;;;;;;;6.97;1.70;;;;;;;;;;5036839;28;20201;-79
2023/11/02 08:46:47;;;;;;;9.30;2.10;;;;;;;;;;5030340;28;20283;-80
2023/11/02 08:49:15;;;;;;;9.67;1.77;;;;;;;;;;5027556;28;20231;-79
2023/11/02 08:51:44;;;;;;;5.33;1.60;;;;;;;;;;5029808;28;20192;-80
2023/11/02 08:54:11;;;;;;;5.27;1.20;;;;;;;;;;5029991;28;20254;-77
2023/11/02 08:56:38;;;;;;;6.67;1.33;;;;;;;;;;5030299;28;20192;-78
2023/11/02 08:59:05;;;;;;;5.53;1.10;;;;;;;;;;5030399;28;20243;-80
2023/11/02 09:01:33;;;;;;;7.37;1.30;;;;;;;;;;5027928;28;20224;-79
2023/11/02 09:04:02;;;;;;;5.97;1.23;;;;;;;;;;5030244;28;20192;-78
2023/11/02 09:06:29;;;;;;;5.83;0.90;;;;;;;;;;5029316;28;20331;-79
2023/11/02 09:08:56;;;;;;;4.93;0.80;;;;;;;;;;5029987;28;20228;-79
2023/11/02 09:11:25;;;;;;;3.23;0.83;;;;;;;;;;5030401;28;20243;-78
2023/11/02 09:13:52;;;;;;;3.03;0.90;;;;;;;;;;5025170;28;20209;-79
2023/11/02 09:16:19;;;;;;;3.97;0.80;;;;;;;;;;5019945;28;20255;-78
2023/11/02 09:18:46;;;;;;;4.00;0.73;;;;;;;;;;5025712;28;20204;-79
2023/11/02 09:21:15;;;;;;;5.50;1.03;;;;;;;;;;5034771;28;20235;-80
2023/11/02 09:23:45;;;;;;;5.77;0.90;;;;;;;;;;5035169;28;20250;-78
2023/11/02 09:26:12;;;;;;;3.60;1.00;;;;;;;;;;5034729;28;20256;-79
2023/11/02 09:28:40;;;;;;;5.23;0.70;;;;;;;;;;5034654;28;20196;-78
2023/11/02 09:31:10;;;;;;;3.60;0.90;;;;;;;;;;5034454;28;20294;-78
2023/11/02 09:33:37;;;;;;;5.43;0.80;;;;;;;;;;5033999;28;20224;-76
2023/11/02 09:36:04;;;;;;;2.97;1.10;;;;;;;;;;5034029;28;20199;-74
2023/11/02 09:38:33;;;;;;;5.20;1.07;;;;;;;;;;5051770;28;20295;-76
2023/11/02 09:41:00;;;;;;;4.70;1.30;;;;;;;;;;5054297;28;20231;-77
2023/11/02 09:43:27;;;;;;;5.27;1.30;;;;;;;;;;5054499;28;20224;-77
2023/11/02 09:45:56;;;;;;;4.47;1.30;;;;;;;;;;5010489;28;20612;-78
2023/11/02 09:48:24;;;;;;;6.37;1.23;;;;;;;;;;5025534;28;20208;-77
2023/11/02 09:50:52;;;;;;;4.97;1.13;;;;;;;;;;5035206;28;20294;-77
2023/11/02 09:53:19;;;;;;;5.00;1.40;;;;;;;;;;5041746;28;20232;-78
2023/11/02 09:55:48;;;;;;;7.57;1.57;;;;;;;;;;5027833;28;20232;-78
2023/11/02 09:58:17;;;;;;;6.47;1.50;;;;;;;;;;5031564;28;20295;-76
2023/11/02 10:00:45;;;;;;;7.60;1.43;;;;;;;;;;5047986;28;20207;-77
2023/11/02 10:03:13;;;;;;;6.33;1.30;;;;;;;;;;5040623;28;20252;-77
2023/11/02 10:05:40;;;;;;;6.03;1.40;;;;;;;;;;5033093;28;20814;-77
2023/11/02 10:08:07;;;;;;;7.83;1.87;;;;;;;;;;5033973;28;20395;-77
2023/11/02 10:10:35;;;;;;;7.07;1.20;;;;;;;;;;5034137;28;20199;-77
2023/11/02 10:13:03;;;;;;;4.67;1.13;;;;;;;;;;5033943;28;20324;-76
2023/11/02 10:15:31;;;;;;;6.67;1.60;;;;;;;;;;5034253;28;20279;-77
2023/11/02 10:17:58;;;;;;;4.40;1.13;;;;;;;;;;5033771;28;20292;-77
2023/11/02 10:20:26;;;;;;;7.63;1.37;;;;;;;;;;5033774;28;20275;-76
2023/11/02 10:22:59;;;;;;;5.00;1.07;;;;;;;;;;5033580;28;20203;-76
2023/11/02 10:25:29;;;;;;;8.90;1.50;;;;;;;;;;5033462;28;20807;-77
2023/11/02 10:27:56;;;;;;;6.67;1.40;;;;;;;;;;5033163;28;20200;-76
2023/11/02 10:30:25;;;;;;;6.95;1.70;;;;;;;;;;5031963;28;20224;-76
2023/11/02 10:32:53;;;;;;;7.70;1.80;;;;;;;;;;5032667;28;20568;-78
2023/11/02 10:35:20;;;;;;;7.80;1.77;;;;;;;;;;5033510;28;20303;-77
2023/11/02 10:37:51;;;;;;;4.55;1.30;;;;;;;;;;5042149;28;20745;-77
2023/11/02 10:40:19;;;;;;;6.55;1.50;;;;;;;;;;5052765;28;20227;-78
2023/11/02 10:42:46;;;;;;;6.57;1.55;;;;;;;;;;5040096;28;20224;-78
2023/11/02 10:45:15;;;;;;;5.45;1.38;;;;;;;;;;5032365;28;20216;-78
2023/11/02 10:47:44;;;;;;;5.63;1.52;;;;;;;;;;5033034;28;20204;-77
2023/11/02 10:50:13;;;;;;;12.30;2.45;;;;;;;;;;5033082;28;20201;-77
2023/11/02 10:52:45;;;;;;;7.13;1.70;;;;;;;;;;5032930;28;20196;-77
2023/11/02 10:55:14;;;;;;;4.87;1.30;;;;;;;;;;5032489;28;20557;-76
2023/11/02 10:57:42;;;;;;;5.93;1.33;;;;;;;;;;5033235;28;20200;-76
2023/11/02 11:00:10;;;;;;;7.20;2.00;;;;;;;;;;5032721;28;20699;-78
2023/11/02 11:02:38;;;;;;;5.87;1.63;;;;;;;;;;5032223;28;20200;-76
2023/11/02 11:05:09;;;;;;;9.10;1.70;;;;;;;;;;5045515;28;20200;-77
2023/11/02 11:07:38;;;;;;;9.27;1.33;;;;;;;;;;5052788;28;20254;-77
2023/11/02 11:10:05;;;;;;;7.23;1.27;;;;;;;;;;5053016;28;20195;-75
2023/11/02 11:12:36;;;;;;;5.70;1.27;;;;;;;;;;5052436;28;20195;-76
2023/11/02 11:15:03;;;;;;;10.33;1.80;;;;;;;;;;5052385;28;20210;-75
2023/11/02 11:17:30;;;;;;;5.67;1.70;;;;;;;;;;5052640;28;20227;-77
2023/11/02 11:19:58;;;;;;;7.77;1.73;;;;;;;;;;5053119;28;20201;-77
2023/11/02 11:22:29;;;;;;;7.85;1.55;;;;;;;;;;5052446;28;20675;-77
2023/11/02 11:24:57;;;;;;;6.28;1.70;;;;;;;;;;5043797;28;20209;-77
2023/11/02 11:27:31;;;;;;;7.72;1.70;;;;;;;;;;5032061;28;20771;-77
2023/11/02 11:29:58;;;;;;;8.23;1.92;;;;;;;;;;5032174;28;20281;-77
2023/11/02 11:32:32;;;;;;;9.32;1.92;;;;;;;;;;5037536;28;20196;-78
2023/11/02 11:35:06;;;;;;;9.07;1.85;;;;;;;;;;5035342;28;20266;-77
2023/11/02 11:37:37;;;;;;;6.32;1.75;;;;;;;;;;5032446;28;20196;-78
2023/11/02 11:40:06;;;;;;;10.35;2.00;;;;;;;;;;5032225;28;20201;-77
2023/11/02 11:42:52;;;;;;;7.20;1.77;;;;;;;;;;5031612;28;20197;-77
2023/11/02 11:45:30;;;;;;;8.90;1.83;;;;;;;;;;5031490;28;20228;-77
2023/11/02 11:47:57;;;;;;;7.30;2.25;;;;;;;;;;5032171;28;20204;-76
2023/11/02 11:50:31;;;;;;;7.75;1.85;;;;;;;;;;5032350;28;20629;-77
2023/11/02 11:53:16;;;;;;;5.55;1.15;;;;;;;;;;5032617;28;20284;-77
2023/11/02 11:55:44;;;;;;;5.75;1.27;;;;;;;;;;5032274;28;20231;-78
2023/11/02 11:58:12;;;;;;;5.85;1.33;;;;;;;;;;5032242;28;20203;-76
2023/11/02 12:00:54;;;;;;;5.53;1.50;;;;;;;;;;5005750;28;20578;-77
2023/11/02 12:03:43;;;;;;;4.53;1.10;;;;;;;;;;5041620;28;20748;-76
2023/11/02 12:06:12;;;;;;;5.20;1.30;;;;;;;;;;5046835;28;20224;-78
2023/11/02 12:08:44;;;;;;;6.97;1.50;;;;;;;;;;5030703;28;20626;-78
2023/11/02 12:11:13;;;;;;;6.47;1.52;;;;;;;;;;5033956;28;20287;-77
2023/11/02 12:13:46;;;;;;;4.22;1.38;;;;;;;;;;5023151;28;20200;-81
2023/11/02 12:16:13;;;;;;;4.82;1.00;;;;;;;;;;5035076;28;20289;-79
2023/11/02 12:18:40;;;;;;;6.95;1.10;;;;;;;;;;5031579;28;20291;-80
2023/11/02 12:21:11;;;;;;;6.68;1.45;;;;;;;;;;5026180;28;20620;-77
2023/11/02 12:23:40;;;;;;;5.70;1.13;;;;;;;;;;5037557;28;20200;-79
2023/11/02 12:26:09;;;;;;;6.30;1.55;;;;;;;;;;5042945;28;20903;-78
2023/11/02 12:28:40;;;;;;;8.50;1.25;;;;;;;;;;5025536;28;20248;-79
2023/11/02 12:31:07;;;;;;;4.72;1.23;;;;;;;;;;5026881;28;20266;-78
2023/11/02 12:33:35;;;;;;;5.00;1.17;;;;;;;;;;5026037;28;20217;-79
2023/11/02 12:36:02;;;;;;;3.67;1.10;;;;;;;;;;5025842;28;20223;-79
2023/11/02 12:38:35;;;;;;;5.05;1.13;;;;;;;;;;5045248;28;21795;-78
2023/11/02 12:41:04;;;;;;;4.97;0.90;;;;;;;;;;5040815;28;20228;-77
2023/11/02 12:43:36;;;;;;;4.85;1.50;;;;;;;;;;5025944;28;20208;-78
2023/11/02 12:46:06;;;;;;;7.40;1.20;;;;;;;;;;5028736;28;20216;-77
2023/11/02 12:48:36;;;;;;;5.45;1.08;;;;;;;;;;5028587;28;20203;-77
2023/11/02 12:51:14;;;;;;;3.90;1.08;;;;;;;;;;5008804;28;20211;-78
2023/11/02 12:53:42;;;;;;;3.40;1.20;;;;;;;;;;5026384;28;20207;-78
2023/11/02 12:56:11;;;;;;;4.20;1.30;;;;;;;;;;5023981;28;20196;-77
2023/11/02 12:58:40;;;;;;;5.75;1.08;;;;;;;;;;5027063;28;20224;-77
2023/11/02 13:01:08;;;;;;;4.63;1.52;;;;;;;;;;5025502;28;20215;-78
2023/11/02 13:03:35;;;;;;;5.20;1.08;;;;;;;;;;5026801;28;21123;-76
2023/11/02 13:06:03;;;;;;;6.93;1.58;;;;;;;;;;5025753;28;20333;-78
2023/11/02 13:08:32;;;;;;;4.32;1.10;;;;;;;;;;5025200;28;20650;-77
2023/11/02 13:11:01;;;;;;;5.80;1.50;;;;;;;;;;5024288;28;20633;-78
2023/11/02 13:13:29;;;;;;;6.45;1.27;;;;;;;;;;5026014;28;20669;-79
2023/11/02 13:15:57;;;;;;;8.73;1.85;;;;;;;;;;5030698;28;20283;-79
2023/11/02 13:18:25;;;;;;;7.55;1.63;;;;;;;;;;5028762;28;20675;-78
2023/11/02 13:20:53;;;;;;;6.60;1.30;;;;;;;;;;5027407;28;20204;-78
2023/11/02 13:23:20;;;;;;;6.30;1.40;;;;;;;;;;5030021;28;20258;-78
2023/11/02 13:25:48;;;;;;;8.10;1.75;;;;;;;;;;5023258;28;20757;-78
2023/11/02 13:28:15;;;;;;;7.70;1.67;;;;;;;;;;5029107;28;20276;-78
2023/11/02 13:30:42;;;;;;;6.80;1.50;;;;;;;;;;5028970;28;20264;-78
2023/11/02 13:33:11;;;;;;;5.70;1.50;;;;;;;;;;5028907;28;20644;-76
2023/11/02 13:35:38;;;;;;;8.15;1.50;;;;;;;;;;5029563;28;20282;-78
2023/11/02 13:38:07;;;;;;;5.32;1.33;;;;;;;;;;5030115;28;20573;-77
2023/11/02 13:40:35;;;;;;;3.73;1.00;;;;;;;;;;5029853;28;20708;-78
2023/11/02 13:43:02;;;;;;;6.30;1.20;;;;;;;;;;5030085;28;20193;-78
2023/11/02 13:45:31;;;;;;;3.97;1.20;;;;;;;;;;5028019;28;20199;-77
2023/11/02 13:47:58;;;;;;;3.17;1.10;;;;;;;;;;5030029;28;20224;-77
2023/11/02 13:50:27;;;;;;;5.57;1.40;;;;;;;;;;5032213;28;20287;-77
2023/11/02 13:52:54;;;;;;;6.60;1.10;;;;;;;;;;5029844;28;20216;-78
2023/11/02 13:55:22;;;;;;;4.90;1.33;;;;;;;;;;5029651;28;20224;-77
2023/11/02 13:57:49;;;;;;;7.05;1.60;;;;;;;;;;5029763;28;20228;-78
2023/11/02 14:00:16;;;;;;;8.07;1.60;;;;;;;;;;5030383;28;20203;-77
2023/11/02 14:02:43;;;;;;;3.55;1.08;;;;;;;;;;5029375;28;20224;-78
2023/11/02 14:05:11;;;;;;;5.50;1.25;;;;;;;;;;5030200;28;20193;-78
2023/11/02 14:07:39;;;;;;;4.90;1.05;;;;;;;;;;5029348;28;20235;-77
2023/11/02 14:10:07;;;;;;;4.65;1.02;;;;;;;;;;5027340;28;20299;-78
2023/11/02 14:12:34;;;;;;;7.73;1.40;;;;;;;;;;5018306;28;20272;-78
2023/11/02 14:15:01;;;;;;;6.27;1.33;;;;;;;;;;5025296;28;20685;-77
2023/11/02 14:17:29;;;;;;;6.53;1.53;;;;;;;;;;5033505;28;20624;-78
2023/11/02 14:19:56;;;;;;;5.03;1.13;;;;;;;;;;5033602;28;20216;-77
2023/11/02 14:22:24;;;;;;;6.60;1.47;;;;;;;;;;5032943;28;20192;-78
2023/11/02 14:24:53;;;;;;;6.10;1.30;;;;;;;;;;5032709;28;20250;-78
2023/11/02 14:27:22;;;;;;;5.83;1.40;;;;;;;;;;5033768;28;20282;-78
2023/11/02 14:29:51;;;;;;;9.20;1.47;;;;;;;;;;5032582;28;20557;-77
2023/11/02 14:32:18;;;;;;;7.77;1.47;;;;;;;;;;5033675;28;20258;-78
2023/11/02 14:34:45;;;;;;;5.73;1.10;;;;;;;;;;5033330;28;20204;-78
2023/11/02 14:37:14;;;;;;;5.90;1.57;;;;;;;;;;5033039;28;20296;-78
2023/11/02 14:39:42;;;;;;;6.07;1.30;;;;;;;;;;5033065;28;20192;-78
2023/11/02 14:42:11;;;;;;;6.20;1.10;;;;;;;;;;5032701;28;20664;-78
2023/11/02 14:44:38;;;;;;;6.00;1.33;;;;;;;;;;5033396;28;20247;-78
2023/11/02 14:47:06;;;;;;;4.83;1.20;;;;;;;;;;5032067;28;20310;-78
2023/11/02 14:49:33;;;;;;;8.27;1.27;;;;;;;;;;5034294;28;20680;-79